createdAt,value
2018-09-25T04:00:51.908Z,99.99
2018-09-25T04:01:51.779Z,99.99
2018-09-25T04:03:44.435Z,99.99
2018-09-25T04:04:44.327Z,99.99
2018-09-25T04:06:37.014Z,99.99
2018-09-25T04:07:36.875Z,99.99
2018-09-25T04:09:29.537Z,99.99
2018-09-25T04:10:29.425Z,99.99
2018-09-25T04:12:22.099Z,99.99
2018-09-25T04:13:21.974Z,99.99
2018-09-25T04:15:14.634Z,99.99
2018-09-25T04:16:14.517Z,99.99
2018-09-25T04:18:07.200Z,99.99
2018-09-25T04:19:07.070Z,99.99
2018-09-25T04:20:59.749Z,99.99
2018-09-25T04:21:59.639Z,99.99
2018-09-25T04:23:52.334Z,99.99
2018-09-25T04:24:52.196Z,99.99
2018-09-25T04:26:44.858Z,99.99
2018-09-25T04:27:44.744Z,99.99
2018-09-25T04:29:37.435Z,99.99
2018-09-25T04:30:37.305Z,99.99
2018-09-25T04:32:29.978Z,99.99
2018-09-25T04:33:29.861Z,99.99
2018-09-25T04:35:22.557Z,99.99
2018-09-25T04:36:22.432Z,99.99
2018-09-25T04:38:15.091Z,99.99
2018-09-25T04:39:14.984Z,99.99
2018-09-25T04:41:07.674Z,99.99
2018-09-25T04:42:07.542Z,99.99
2018-09-25T04:44:00.204Z,99.99
2018-09-25T04:45:00.095Z,99.99
2018-09-25T04:46:52.787Z,99.99
2018-09-25T04:47:52.692Z,99.99
2018-09-25T04:49:45.319Z,99.99
2018-09-25T04:50:45.209Z,99.99
2018-09-25T04:52:37.889Z,99.99
2018-09-25T04:53:37.751Z,99.99
2018-09-25T04:55:30.424Z,99.99
2018-09-25T04:56:30.302Z,99.99
2018-09-25T04:58:22.994Z,99.99
2018-09-25T04:59:22.869Z,99.99
2018-09-25T05:01:15.525Z,99.99
2018-09-25T05:02:15.416Z,99.99
2018-09-25T05:04:08.094Z,99.99
2018-09-25T05:05:07.967Z,99.99
2018-09-25T05:07:00.628Z,99.99
2018-09-25T05:08:00.517Z,99.99
2018-09-25T05:09:53.211Z,99.99
2018-09-25T05:10:53.066Z,99.99
2018-09-25T05:12:45.761Z,99.99
2018-09-25T05:13:45.627Z,99.99
2018-09-25T05:15:38.299Z,99.99
2018-09-25T05:16:38.165Z,99.99
2018-09-25T05:18:30.831Z,99.99
2018-09-25T05:19:30.720Z,99.99
2018-09-25T05:21:23.394Z,99.99
2018-09-25T05:22:23.394Z,99.99
2018-09-25T05:24:15.936Z,99.99
2018-09-25T05:25:15.824Z,99.99
2018-09-25T05:27:08.503Z,99.99
2018-09-25T05:28:08.377Z,99.99
2018-09-25T05:30:01.037Z,99.99
2018-09-25T05:31:00.926Z,99.99
2018-09-25T05:32:53.616Z,99.99
2018-09-25T05:33:53.484Z,99.99
2018-09-25T05:35:46.154Z,99.99
2018-09-25T05:36:46.031Z,99.99
2018-09-25T05:38:38.718Z,99.99
2018-09-25T05:39:38.584Z,99.99
2018-09-25T05:41:31.284Z,99.99
2018-09-25T05:42:31.147Z,99.99
2018-09-25T05:44:23.830Z,99.99
2018-09-25T05:45:23.695Z,99.99
2018-09-25T05:47:16.363Z,99.99
2018-09-25T05:48:16.277Z,99.99
2018-09-25T05:50:08.931Z,99.99
2018-09-25T05:51:08.805Z,99.99
2018-09-25T05:53:01.458Z,99.99
2018-09-25T05:54:01.350Z,99.99
2018-09-25T05:55:54.032Z,99.99
2018-09-25T05:56:53.902Z,99.99
2018-09-25T05:58:46.566Z,99.99
2018-09-25T05:59:46.454Z,99.99
2018-09-25T06:01:39.156Z,99.99
2018-09-25T06:02:39.014Z,99.99
2018-09-25T06:04:31.675Z,99.99
2018-09-25T06:05:31.565Z,99.99
2018-09-25T06:07:24.251Z,99.99
2018-09-25T06:08:24.123Z,99.99
2018-09-25T06:10:16.787Z,99.99
2018-09-25T06:11:16.675Z,99.99
2018-09-25T06:13:09.356Z,99.99
2018-09-25T06:14:09.235Z,99.99
2018-09-25T06:16:01.901Z,99.99
2018-09-25T06:17:01.787Z,99.99
2018-09-25T06:18:54.467Z,99.99
2018-09-25T06:19:54.334Z,99.99
2018-09-25T06:21:47.006Z,99.99
2018-09-25T06:22:46.900Z,99.99
2018-09-25T06:24:39.569Z,99.99
2018-09-25T06:25:39.442Z,99.99
2018-09-25T06:27:32.123Z,99.99
2018-09-25T06:28:32.010Z,99.99
2018-09-25T06:30:24.688Z,99.99
2018-09-25T06:31:24.554Z,99.99
2018-09-25T06:33:17.224Z,99.99
2018-09-25T06:34:17.107Z,99.99
2018-09-25T06:36:09.796Z,99.99
2018-09-25T06:37:09.679Z,99.99
2018-09-25T06:39:02.336Z,99.99
2018-09-25T06:40:02.218Z,99.99
2018-09-25T06:41:54.906Z,99.99
2018-09-25T06:42:54.778Z,99.99
2018-09-25T06:44:47.461Z,99.99
2018-09-25T06:45:47.352Z,99.99
2018-09-25T06:47:40.037Z,99.99
2018-09-25T06:48:39.896Z,99.99
2018-09-25T06:50:32.554Z,99.99
2018-09-25T06:51:32.450Z,99.99
2018-09-25T06:53:25.133Z,99.99
2018-09-25T06:54:25.003Z,99.99
2018-09-25T06:56:17.678Z,99.99
2018-09-25T06:57:17.560Z,99.99
2018-09-25T06:59:10.239Z,99.99
2018-09-25T07:00:10.108Z,99.99
2018-09-25T07:02:02.772Z,99.99
2018-09-25T07:03:02.668Z,99.99
2018-09-25T07:04:55.352Z,99.99
2018-09-25T07:05:55.219Z,99.99
2018-09-25T07:07:47.890Z,99.99
2018-09-25T07:08:47.780Z,99.99
2018-09-25T07:10:40.514Z,99.99
2018-09-25T07:11:40.338Z,99.99
2018-09-25T07:13:33.000Z,99.99
2018-09-25T07:14:32.897Z,99.99
2018-09-25T07:16:25.573Z,99.99
2018-09-25T07:17:25.450Z,99.99
2018-09-25T07:19:18.115Z,99.99
2018-09-25T07:20:18.001Z,99.99
2018-09-25T07:22:10.680Z,99.99
2018-09-25T07:23:10.555Z,99.99
2018-09-25T07:25:03.274Z,99.99
2018-09-25T07:26:03.109Z,99.99
2018-09-25T07:27:55.787Z,99.99
2018-09-25T07:28:55.660Z,99.99
2018-09-25T07:30:48.339Z,99.55
2018-09-25T07:31:48.229Z,99.84
2018-09-25T07:33:40.913Z,99.27
2018-09-25T07:34:40.785Z,98.50
2018-09-25T07:36:33.464Z,99.46
2018-09-25T07:37:33.352Z,99.27
2018-09-25T07:39:26.033Z,99.27
2018-09-25T07:40:25.899Z,99.36
2018-09-25T07:42:18.569Z,99.27
2018-09-25T07:43:18.454Z,99.08
2018-09-25T07:45:11.153Z,98.22
2018-09-25T07:46:11.012Z,98.32
2018-09-25T07:48:03.735Z,97.99
2018-09-25T07:49:03.568Z,97.51
2018-09-25T07:50:56.255Z,96.46
2018-09-25T07:51:56.130Z,96.75
2018-09-25T07:53:48.797Z,96.94
2018-09-25T07:54:48.690Z,97.03
2018-09-25T07:56:41.368Z,95.70
2018-09-25T07:57:41.249Z,95.89
2018-09-25T07:59:33.909Z,95.03
2018-09-25T08:00:33.798Z,95.32
2018-09-25T08:02:26.485Z,94.74
2018-09-25T08:03:26.359Z,94.98
2018-09-25T08:05:19.028Z,94.22
2018-09-25T08:06:18.908Z,94.32
2018-09-25T08:08:11.597Z,94.70
2018-09-25T08:09:11.532Z,93.93
2018-09-25T08:11:04.143Z,93.17
2018-09-25T08:12:04.022Z,92.98
2018-09-25T08:13:56.707Z,92.22
2018-09-25T08:14:56.578Z,92.41
2018-09-25T08:16:49.250Z,92.17
2018-09-25T08:17:49.141Z,92.60
2018-09-25T08:19:41.836Z,92.65
2018-09-25T08:20:41.701Z,92.08
2018-09-25T08:22:34.374Z,91.41
2018-09-25T08:23:34.264Z,91.22
2018-09-25T08:25:26.949Z,90.36
2018-09-25T08:26:26.816Z,90.26
2018-09-25T08:28:19.494Z,90.36
2018-09-25T08:29:19.381Z,90.45
2018-09-25T08:31:12.083Z,90.55
2018-09-25T08:32:11.957Z,89.60
2018-09-25T08:34:04.635Z,90.45
2018-09-25T08:35:04.535Z,89.79
2018-09-25T08:36:57.214Z,88.64
2018-09-25T08:37:57.088Z,89.98
2018-09-25T08:39:49.759Z,89.07
2018-09-25T08:40:49.650Z,89.36
2018-09-25T08:42:42.336Z,88.31
2018-09-25T08:43:42.207Z,88.21
2018-09-25T08:45:34.881Z,88.59
2018-09-25T08:46:34.767Z,87.83
2018-09-25T08:48:27.458Z,87.45
2018-09-25T08:49:27.334Z,86.11
2018-09-25T08:51:20.011Z,86.98
2018-09-25T08:52:19.893Z,87.64
2018-09-25T08:54:12.590Z,85.77
2018-09-25T08:55:12.462Z,86.25
2018-09-25T08:57:05.145Z,85.87
2018-09-25T08:58:05.022Z,85.77
2018-09-25T08:59:57.685Z,85.49
2018-09-25T09:00:57.620Z,84.92
2018-09-25T09:02:50.270Z,85.11
2018-09-25T09:03:50.139Z,84.34
2018-09-25T09:05:42.813Z,83.67
2018-09-25T09:06:42.702Z,83.20
2018-09-25T09:08:35.402Z,83.77
2018-09-25T09:09:35.263Z,83.72
2018-09-25T09:11:28.025Z,84.00
2018-09-25T09:12:27.921Z,83.05
2018-09-25T09:14:20.617Z,82.67
2018-09-25T09:15:20.481Z,82.57
2018-09-25T09:17:13.148Z,81.71
2018-09-25T09:18:13.052Z,80.76
2018-09-25T09:20:05.799Z,80.38
2018-09-25T09:21:05.617Z,80.47
2018-09-25T09:22:58.282Z,79.99
2018-09-25T09:23:58.173Z,80.04
2018-09-25T09:25:50.877Z,82.14
2018-09-25T09:26:50.748Z,81.66
2018-09-25T09:28:43.419Z,80.04
2018-09-25T09:29:43.307Z,79.65
2018-09-25T09:31:35.999Z,79.75
2018-09-25T09:32:35.954Z,79.46
2018-09-25T09:34:28.543Z,79.27
2018-09-25T09:35:28.440Z,78.70
2018-09-25T09:37:21.133Z,78.03
2018-09-25T09:38:21.002Z,78.70
2018-09-25T09:40:13.677Z,78.03
2018-09-25T09:41:13.645Z,78.22
2018-09-25T09:43:06.257Z,79.17
2018-09-25T09:44:06.127Z,78.70
2018-09-25T09:45:58.806Z,77.26
2018-09-25T09:46:58.697Z,77.26
2018-09-25T09:48:51.385Z,76.21
2018-09-25T09:49:51.260Z,75.54
2018-09-25T09:51:43.930Z,75.54
2018-09-25T09:52:43.827Z,74.88
2018-09-25T09:54:36.519Z,74.53
2018-09-25T09:55:36.395Z,75.20
2018-09-25T09:57:29.068Z,75.01
2018-09-25T09:58:28.964Z,74.53
2018-09-25T10:00:21.645Z,75.68
2018-09-25T10:01:21.536Z,74.91
2018-09-25T10:03:14.211Z,74.34
2018-09-25T10:04:14.100Z,73.19
2018-09-25T10:06:06.803Z,73.80
2018-09-25T10:07:06.740Z,71.99
2018-09-25T10:08:59.352Z,72.28
2018-09-25T10:09:59.249Z,72.37
2018-09-25T10:11:51.952Z,71.80
2018-09-25T10:12:51.815Z,71.03
2018-09-25T10:14:44.493Z,70.36
2018-09-25T10:15:44.385Z,70.46
2018-09-25T10:17:37.075Z,70.84
2018-09-25T10:18:36.951Z,70.17
2018-09-25T10:20:29.622Z,70.27
2018-09-25T10:21:29.519Z,71.32
2018-09-25T10:23:22.215Z,70.36
2018-09-25T10:24:22.088Z,70.27
2018-09-25T10:26:14.811Z,70.01
2018-09-25T10:27:14.686Z,69.70
2018-09-25T10:29:07.337Z,68.39
2018-09-25T10:30:07.216Z,68.35
2018-09-25T10:31:59.895Z,67.24
2018-09-25T10:32:59.794Z,66.76
2018-09-25T10:34:52.478Z,66.32
2018-09-25T10:35:52.354Z,66.74
2018-09-25T10:37:45.045Z,66.06
2018-09-25T10:38:44.937Z,65.30
2018-09-25T10:40:37.666Z,65.20
2018-09-25T10:41:37.517Z,65.11
2018-09-25T10:43:30.189Z,63.76
2018-09-25T10:44:30.079Z,63.10
2018-09-25T10:46:22.782Z,62.07
2018-09-25T10:47:22.655Z,63.32
2018-09-25T10:49:15.333Z,61.79
2018-09-25T10:50:15.230Z,60.83
2018-09-25T10:52:07.926Z,61.15
2018-09-25T10:53:07.800Z,61.53
2018-09-25T10:55:00.482Z,61.34
2018-09-25T10:56:00.428Z,61.43
2018-09-25T10:57:53.088Z,62.68
2018-09-25T10:58:52.992Z,62.49
2018-09-25T11:00:45.649Z,62.20
2018-09-25T11:01:45.542Z,61.91
2018-09-25T11:03:39.242Z,60.19
2018-09-25T11:04:39.131Z,60.03
2018-09-25T11:06:31.796Z,58.69
2018-09-25T11:07:31.719Z,58.01
2018-09-25T11:09:24.401Z,58.11
2018-09-25T11:10:24.270Z,57.98
2018-09-25T11:12:16.957Z,58.30
2018-09-25T11:13:16.856Z,60.38
2018-09-25T11:15:09.561Z,62.30
2018-09-25T11:16:09.443Z,63.45
2018-09-25T11:18:02.116Z,64.28
2018-09-25T11:19:02.006Z,63.51
2018-09-25T11:20:54.705Z,65.11
2018-09-25T11:21:54.582Z,64.82
2018-09-25T11:23:47.265Z,64.43
2018-09-25T11:24:47.166Z,64.31
2018-09-25T11:26:39.867Z,65.74
2018-09-25T11:27:39.738Z,65.45
2018-09-25T11:29:32.416Z,66.25
2018-09-25T11:30:32.307Z,66.64
2018-09-25T11:32:25.013Z,67.50
2018-09-25T11:33:24.889Z,66.06
2018-09-25T11:35:17.625Z,66.83
2018-09-25T11:36:17.461Z,66.54
2018-09-25T11:38:10.160Z,66.74
2018-09-25T11:39:10.033Z,67.02
2018-09-25T11:41:02.805Z,65.78
2018-09-25T11:42:02.611Z,65.49
2018-09-25T11:43:55.303Z,64.82
2018-09-25T11:44:55.247Z,62.62
2018-09-25T11:46:47.965Z,62.93
2018-09-25T11:47:47.828Z,63.03
2018-09-25T11:49:40.535Z,61.85
2018-09-25T11:50:40.402Z,60.99
2018-09-25T11:52:33.077Z,61.98
2018-09-25T11:53:32.972Z,61.40
2018-09-25T11:55:25.662Z,59.58
2018-09-25T11:56:25.623Z,59.68
2018-09-25T11:58:19.215Z,58.72
2018-09-25T11:59:19.107Z,58.53
2018-09-25T12:01:11.824Z,59.68
2018-09-25T12:02:11.694Z,59.77
2018-09-25T12:04:04.367Z,59.48
2018-09-25T12:05:04.262Z,58.81
2018-09-25T12:06:56.959Z,60.64
2018-09-25T12:07:56.837Z,59.77
2018-09-25T12:09:49.520Z,59.58
2018-09-25T12:10:49.410Z,59.68
2018-09-25T12:12:42.101Z,58.05
2018-09-25T12:13:42.033Z,58.75
2018-09-25T12:15:34.658Z,56.93
2018-09-25T12:16:34.553Z,56.26
2018-09-25T12:18:27.259Z,55.49
2018-09-25T12:19:27.148Z,55.33
2018-09-25T12:21:19.809Z,54.75
2018-09-25T12:22:19.706Z,53.22
2018-09-25T12:24:12.407Z,53.89
2018-09-25T12:25:12.281Z,53.72
2018-09-25T12:27:04.959Z,53.63
2018-09-25T12:28:04.854Z,52.95
2018-09-25T12:29:57.706Z,52.19
2018-09-25T12:30:57.436Z,51.51
2018-09-25T12:32:50.161Z,51.25
2018-09-25T12:33:50.030Z,51.64
2018-09-25T12:35:42.705Z,50.10
2018-09-25T12:36:42.577Z,50.10
2018-09-25T12:38:35.265Z,49.69
2018-09-25T12:39:35.151Z,49.69
2018-09-25T12:41:27.858Z,51.61
2018-09-25T12:42:27.730Z,51.32
2018-09-25T12:44:20.415Z,50.17
2018-09-25T12:45:20.314Z,51.71
2018-09-25T12:47:13.015Z,51.97
2018-09-25T12:48:12.893Z,52.52
2018-09-25T12:50:05.573Z,53.77
2018-09-25T12:51:05.475Z,53.77
2018-09-25T12:52:58.173Z,52.81
2018-09-25T12:53:58.041Z,53.48
2018-09-25T12:55:50.727Z,54.53
2018-09-25T12:56:50.619Z,54.72
2018-09-25T12:58:43.313Z,53.38
2018-09-25T12:59:43.191Z,53.77
2018-09-25T13:01:35.872Z,53.67
2018-09-25T13:02:35.767Z,54.05
2018-09-25T13:04:28.464Z,53.64
2018-09-25T13:05:28.336Z,53.45
2018-09-25T13:07:21.012Z,53.38
2018-09-25T13:08:20.910Z,54.72
2018-09-25T13:10:13.609Z,56.45
2018-09-25T13:11:13.487Z,56.83
2018-09-25T13:13:06.163Z,57.76
2018-09-25T13:14:06.052Z,58.65
2018-09-25T13:15:58.812Z,58.24
2018-09-25T13:16:58.631Z,58.72
2018-09-25T13:18:51.320Z,58.94
2018-09-25T13:19:51.282Z,58.44
2018-09-25T13:21:43.909Z,56.90
2018-09-25T13:22:43.784Z,57.57
2018-09-25T13:24:36.466Z,57.95
2018-09-25T13:25:36.355Z,57.38
2018-09-25T13:27:29.048Z,56.81
2018-09-25T13:28:28.926Z,58.15
2018-09-25T13:30:21.627Z,58.81
2018-09-25T13:31:21.502Z,57.95
2018-09-25T13:33:14.214Z,59.30
2018-09-25T13:34:14.077Z,59.58
2018-09-25T13:36:06.758Z,58.34
2018-09-25T13:37:06.650Z,58.24
2018-09-25T13:38:59.344Z,58.05
2018-09-25T13:39:59.224Z,58.05
2018-09-25T13:41:51.917Z,57.57
2018-09-25T13:42:51.810Z,57.48
2018-09-25T13:44:44.503Z,57.86
2018-09-25T13:45:44.382Z,57.95
2018-09-25T13:47:37.068Z,57.76
2018-09-25T13:48:36.964Z,58.81
2018-09-25T13:50:29.665Z,58.24
2018-09-25T13:51:29.541Z,58.62
2018-09-25T13:53:22.211Z,58.53
2018-09-25T13:54:22.112Z,59.11
2018-09-25T13:56:14.907Z,58.53
2018-09-25T13:57:14.681Z,58.15
2018-09-25T13:59:07.361Z,58.46
2018-09-25T14:00:07.261Z,58.34
2018-09-25T14:01:59.952Z,57.89
2018-09-25T14:02:59.831Z,57.98
2018-09-25T14:04:52.505Z,58.24
2018-09-25T14:05:52.396Z,59.23
2018-09-25T14:07:45.107Z,59.42
2018-09-25T14:08:44.986Z,59.52
2018-09-25T14:10:37.657Z,59.71
2018-09-25T14:11:37.554Z,59.04
2018-09-25T14:13:30.247Z,59.61
2018-09-25T14:14:30.121Z,59.33
2018-09-25T14:16:22.804Z,58.37
2018-09-25T14:17:22.691Z,59.13
2018-09-25T14:19:15.390Z,57.06
2018-09-25T14:20:15.268Z,57.12
2018-09-25T14:22:08.080Z,57.12
2018-09-25T14:23:07.912Z,57.79
2018-09-25T14:25:00.607Z,57.67
2018-09-25T14:26:00.482Z,57.95
2018-09-25T14:27:53.219Z,57.98
2018-09-25T14:28:53.050Z,58.46
2018-09-25T14:30:45.755Z,58.24
2018-09-25T14:31:45.626Z,58.56
2018-09-25T14:33:38.308Z,59.33
2018-09-25T14:34:38.234Z,58.84
2018-09-25T14:36:30.888Z,58.65
2018-09-25T14:37:30.778Z,58.56
2018-09-25T14:39:23.454Z,57.89
2018-09-25T14:40:23.338Z,57.89
2018-09-25T14:42:16.041Z,56.83
2018-09-25T14:43:15.920Z,57.03
2018-09-25T14:45:08.630Z,56.19
2018-09-25T14:46:08.500Z,55.71
2018-09-25T14:48:01.182Z,55.42
2018-09-25T14:49:01.067Z,56.00
2018-09-25T14:50:53.741Z,56.29
2018-09-25T14:51:53.636Z,55.52
2018-09-25T14:53:46.336Z,56.38
2018-09-25T14:54:46.215Z,55.23
2018-09-25T14:56:38.899Z,56.19
2018-09-25T14:57:38.789Z,56.57
2018-09-25T14:59:31.495Z,57.89
2018-09-25T15:00:31.363Z,56.74
2018-09-25T15:02:24.049Z,57.70
2018-09-25T15:03:23.943Z,58.08
2018-09-25T15:05:16.800Z,57.86
2018-09-25T15:06:16.519Z,58.15
2018-09-25T15:08:09.192Z,58.15
2018-09-25T15:09:09.090Z,58.44
2018-09-25T15:11:01.787Z,59.11
2018-09-25T15:12:01.666Z,58.81
2018-09-25T15:13:54.339Z,59.36
2018-09-25T15:14:54.238Z,59.45
2018-09-25T15:16:46.932Z,60.41
2018-09-25T15:17:46.809Z,60.80
2018-09-25T15:19:39.482Z,60.61
2018-09-25T15:20:39.389Z,60.70
2018-09-25T15:22:32.070Z,60.32
2018-09-25T15:23:31.950Z,59.84
2018-09-25T15:25:24.634Z,60.70
2018-09-25T15:26:24.531Z,60.80
2018-09-25T15:28:17.220Z,61.37
2018-09-25T15:29:17.103Z,60.61
2018-09-25T15:31:09.774Z,60.70
2018-09-25T15:32:09.666Z,60.61
2018-09-25T15:34:02.369Z,60.89
2018-09-25T15:35:02.267Z,60.41
2018-09-25T15:36:54.919Z,60.99
2018-09-25T15:37:54.870Z,60.80
2018-09-25T15:39:47.508Z,60.41
2018-09-25T15:40:47.417Z,61.08
2018-09-25T15:42:40.061Z,61.28
2018-09-25T15:43:39.967Z,61.66
2018-09-25T15:45:32.664Z,62.23
2018-09-25T15:46:32.533Z,61.76
2018-09-25T15:48:25.207Z,61.76
2018-09-25T15:49:25.153Z,61.28
2018-09-25T15:51:17.803Z,62.81
2018-09-25T15:52:17.675Z,63.48
2018-09-25T15:54:10.352Z,63.96
2018-09-25T15:55:10.241Z,62.33
2018-09-25T15:57:02.930Z,61.94
2018-09-25T15:58:02.811Z,62.71
2018-09-25T15:59:55.490Z,62.33
2018-09-25T16:00:55.380Z,62.33
2018-09-25T16:02:48.085Z,61.66
2018-09-25T16:03:47.960Z,61.94
2018-09-25T16:05:40.634Z,61.76
2018-09-25T16:06:40.533Z,63.39
2018-09-25T16:08:33.222Z,63.86
2018-09-25T16:09:33.099Z,64.34
2018-09-25T16:11:25.784Z,63.48
2018-09-25T16:12:25.674Z,62.33
2018-09-25T16:14:18.366Z,63.19
2018-09-25T16:15:18.242Z,63.48
2018-09-25T16:17:10.918Z,62.90
2018-09-25T16:18:10.808Z,62.62
2018-09-25T16:20:03.514Z,62.71
2018-09-25T16:21:03.383Z,62.90
2018-09-25T16:22:56.075Z,62.71
2018-09-25T16:23:55.949Z,62.52
2018-09-25T16:25:48.644Z,62.04
2018-09-25T16:26:48.520Z,63.00
2018-09-25T16:28:41.193Z,63.39
2018-09-25T16:29:41.231Z,63.29
2018-09-25T16:31:33.784Z,63.35
2018-09-25T16:32:33.721Z,63.19
2018-09-25T16:34:26.341Z,63.26
2018-09-25T16:35:26.294Z,62.11
2018-09-25T16:37:18.925Z,62.40
2018-09-25T16:38:18.801Z,62.20
2018-09-25T16:40:11.474Z,62.11
2018-09-25T16:41:11.368Z,62.49
2018-09-25T16:43:04.075Z,61.54
2018-09-25T16:44:03.950Z,61.25
2018-09-25T16:45:56.631Z,62.40
2018-09-25T16:46:56.527Z,62.40
2018-09-25T16:48:49.224Z,62.01
2018-09-25T16:49:49.089Z,62.30
2018-09-25T16:51:41.772Z,62.40
2018-09-25T16:52:41.666Z,62.59
2018-09-25T16:54:34.357Z,63.54
2018-09-25T16:55:34.240Z,62.87
2018-09-25T16:57:26.909Z,63.83
2018-09-25T16:58:26.801Z,63.83
2018-09-25T17:00:19.499Z,64.02
2018-09-25T17:01:19.377Z,64.79
2018-09-25T17:03:12.051Z,63.54
2018-09-25T17:04:11.940Z,63.83
2018-09-25T17:06:04.675Z,64.02
2018-09-25T17:07:04.522Z,64.22
2018-09-25T17:08:57.180Z,63.45
2018-09-25T17:09:57.070Z,63.64
2018-09-25T17:11:49.773Z,64.88
2018-09-25T17:12:49.645Z,64.98
2018-09-25T17:14:42.320Z,64.47
2018-09-25T17:15:42.220Z,64.69
2018-09-25T17:17:34.917Z,66.09
2018-09-25T17:18:34.786Z,65.42
2018-09-25T17:20:27.459Z,64.75
2018-09-25T17:21:27.357Z,65.14
2018-09-25T17:23:20.056Z,65.23
2018-09-25T17:24:19.923Z,66.67
2018-09-25T17:26:12.601Z,66.38
2018-09-25T17:27:12.495Z,66.47
2018-09-25T17:29:05.181Z,66.76
2018-09-25T17:30:05.064Z,66.47
2018-09-25T17:31:57.743Z,66.76
2018-09-25T17:32:57.635Z,67.63
2018-09-25T17:34:50.346Z,68.10
2018-09-25T17:35:50.195Z,67.97
2018-09-25T17:37:42.867Z,68.55
2018-09-25T17:38:42.760Z,68.84
2018-09-25T17:40:35.534Z,70.07
2018-09-25T17:41:35.328Z,70.27
2018-09-25T17:43:27.999Z,70.75
2018-09-25T17:44:27.895Z,71.42
2018-09-25T17:46:20.587Z,71.95
2018-09-25T17:47:20.462Z,72.53
2018-09-25T17:49:13.215Z,73.48
2018-09-25T17:50:13.053Z,73.48
2018-09-25T17:52:05.750Z,74.34
2018-09-25T17:53:05.628Z,74.59
2018-09-25T17:54:58.301Z,74.88
2018-09-25T17:55:58.197Z,74.98
2018-09-25T17:57:50.882Z,76.21
2018-09-25T17:58:50.800Z,76.50
2018-09-25T18:00:43.431Z,76.98
2018-09-25T18:01:43.339Z,77.08
2018-09-25T18:03:36.010Z,77.26
2018-09-25T18:04:35.887Z,77.84
2018-09-25T18:06:28.556Z,78.13
2018-09-25T18:07:28.450Z,78.60
2018-09-25T18:09:21.144Z,78.89
2018-09-25T18:10:21.024Z,78.51
2018-09-25T18:12:13.702Z,78.99
2018-09-25T18:13:13.581Z,79.14
2018-09-25T18:15:06.274Z,80.09
2018-09-25T18:16:06.151Z,80.19
2018-09-25T18:17:58.821Z,80.57
2018-09-25T18:18:58.707Z,81.04
2018-09-25T18:20:51.402Z,80.28
2018-09-25T18:21:51.270Z,81.24
2018-09-25T18:23:43.951Z,80.28
2018-09-25T18:24:43.852Z,80.95
2018-09-25T18:26:36.539Z,80.09
2018-09-25T18:27:36.411Z,79.96
2018-09-25T18:29:29.083Z,79.86
2018-09-25T18:30:28.984Z,79.77
2018-09-25T18:32:21.661Z,80.24
2018-09-25T18:33:21.549Z,80.53
2018-09-25T18:35:14.211Z,81.58
2018-09-25T18:36:14.111Z,81.20
2018-09-25T18:38:06.832Z,81.29
2018-09-25T18:39:06.671Z,81.10
2018-09-25T18:40:59.347Z,80.72
2018-09-25T18:41:59.263Z,80.33
2018-09-25T18:43:51.984Z,80.81
2018-09-25T18:44:51.837Z,81.20
2018-09-25T18:46:44.489Z,80.62
2018-09-25T18:47:44.379Z,81.48
2018-09-25T18:49:37.074Z,81.48
2018-09-25T18:50:36.997Z,81.58
2018-09-25T18:52:29.617Z,81.82
2018-09-25T18:53:29.512Z,82.30
2018-09-25T18:55:22.199Z,82.30
2018-09-25T18:56:22.066Z,82.68
2018-09-25T18:58:14.732Z,83.35
2018-09-25T18:59:14.644Z,83.54
2018-09-25T19:01:07.331Z,83.35
2018-09-25T19:02:07.202Z,83.06
2018-09-25T19:03:59.873Z,83.44
2018-09-25T19:04:59.848Z,83.64
2018-09-25T19:06:52.554Z,83.92
2018-09-25T19:07:52.426Z,84.78
2018-09-25T19:09:45.094Z,84.97
2018-09-25T19:10:44.982Z,84.78
2018-09-25T19:12:37.683Z,85.25
2018-09-25T19:13:37.550Z,85.45
2018-09-25T19:15:30.277Z,85.35
2018-09-25T19:16:30.113Z,85.41
2018-09-25T19:18:23.015Z,85.21
2018-09-25T19:19:22.680Z,85.78
2018-09-25T19:21:15.598Z,86.16
2018-09-25T19:22:15.485Z,86.26
2018-09-25T19:24:09.192Z,86.16
2018-09-25T19:25:09.394Z,86.07
2018-09-25T19:27:01.805Z,87.02
2018-09-25T19:28:01.748Z,86.55
2018-09-25T19:29:54.375Z,87.02
2018-09-25T19:30:54.254Z,86.93
2018-09-25T19:32:46.924Z,87.12
2018-09-25T19:33:46.816Z,87.02
2018-09-25T19:35:39.495Z,87.69
2018-09-25T19:36:39.371Z,86.83
2018-09-25T19:38:32.040Z,87.40
2018-09-25T19:39:31.932Z,87.21
2018-09-25T19:41:24.617Z,87.31
2018-09-25T19:42:24.492Z,87.02
2018-09-25T19:44:17.176Z,87.21
2018-09-25T19:45:17.050Z,87.31
2018-09-25T19:47:09.742Z,86.93
2018-09-25T19:48:09.869Z,86.93
2018-09-25T19:50:02.283Z,87.31
2018-09-25T19:51:02.200Z,87.79
2018-09-25T19:52:54.865Z,86.65
2018-09-25T19:53:54.786Z,87.21
2018-09-25T19:55:47.404Z,87.50
2018-09-25T19:56:47.294Z,86.83
2018-09-25T19:58:39.999Z,87.69
2018-09-25T19:59:39.862Z,87.65
2018-09-25T20:01:32.531Z,87.84
2018-09-25T20:02:32.425Z,88.22
2018-09-25T20:04:25.109Z,88.26
2018-09-25T20:05:24.978Z,88.17
2018-09-25T20:07:17.792Z,87.74
2018-09-25T20:08:17.554Z,88.07
2018-09-25T20:10:10.299Z,88.31
2018-09-25T20:11:10.179Z,88.98
2018-09-25T20:13:02.839Z,89.55
2018-09-25T20:14:02.726Z,89.36
2018-09-25T20:15:55.413Z,89.26
2018-09-25T20:16:55.281Z,88.60
2018-09-25T20:18:47.951Z,88.79
2018-09-25T20:19:47.862Z,89.55
2018-09-25T20:21:40.541Z,88.98
2018-09-25T20:22:40.412Z,88.70
2018-09-25T20:24:33.092Z,89.07
2018-09-25T20:25:32.972Z,88.89
2018-09-25T20:27:25.668Z,88.79
2018-09-25T20:28:25.547Z,89.17
2018-09-25T20:30:18.207Z,88.98
2018-09-25T20:31:18.864Z,88.89
2018-09-25T20:33:10.897Z,89.17
2018-09-25T20:34:10.775Z,88.70
2018-09-25T20:36:04.607Z,89.55
2018-09-25T20:37:04.189Z,89.94
2018-09-25T20:38:56.964Z,88.89
2018-09-25T20:39:56.748Z,89.07
2018-09-25T20:41:49.448Z,88.51
2018-09-25T20:42:49.382Z,89.07
2018-09-25T20:44:42.030Z,89.46
2018-09-25T20:45:42.177Z,88.89
2018-09-25T20:47:34.609Z,88.89
2018-09-25T20:48:34.497Z,89.46
2018-09-25T20:50:27.198Z,89.84
2018-09-25T20:51:27.072Z,89.26
2018-09-25T20:53:19.764Z,89.32
2018-09-25T20:54:19.651Z,89.22
2018-09-25T20:56:12.347Z,89.70
2018-09-25T20:57:12.219Z,89.89
2018-09-25T20:59:04.883Z,89.98
2018-09-25T21:00:04.778Z,89.70
2018-09-25T21:01:57.522Z,89.79
2018-09-25T21:02:57.326Z,89.89
2018-09-25T21:04:49.993Z,90.08
2018-09-25T21:05:49.885Z,90.46
2018-09-25T21:07:42.572Z,89.61
2018-09-25T21:08:42.440Z,89.79
2018-09-25T21:10:35.124Z,90.56
2018-09-25T21:11:35.021Z,89.98
2018-09-25T21:13:27.695Z,89.98
2018-09-25T21:14:27.570Z,89.61
2018-09-25T21:16:20.251Z,90.27
2018-09-25T21:17:20.138Z,90.27
2018-09-25T21:19:12.818Z,90.17
2018-09-25T21:20:12.690Z,89.98
2018-09-25T21:22:05.377Z,90.08
2018-09-25T21:23:05.245Z,90.36
2018-09-25T21:24:57.937Z,89.22
2018-09-25T21:25:57.802Z,90.36
2018-09-25T21:27:50.468Z,90.08
2018-09-25T21:28:50.361Z,90.08
2018-09-25T21:30:43.046Z,89.98
2018-09-25T21:31:42.918Z,90.46
2018-09-25T21:33:35.603Z,89.89
2018-09-25T21:34:35.492Z,90.08
2018-09-25T21:36:28.182Z,89.89
2018-09-25T21:37:28.044Z,89.41
2018-09-25T21:39:20.767Z,89.51
2018-09-25T21:40:20.608Z,88.93
2018-09-25T21:42:13.288Z,89.61
2018-09-25T21:43:13.152Z,89.70
2018-09-25T21:45:05.952Z,89.89
2018-09-25T21:46:05.709Z,88.65
2018-09-25T21:47:58.385Z,88.84
2018-09-25T21:48:58.326Z,89.03
2018-09-25T21:50:50.979Z,88.65
2018-09-25T21:51:50.920Z,88.84
2018-09-25T21:53:43.516Z,89.22
2018-09-25T21:54:43.373Z,89.03
2018-09-25T21:56:36.042Z,89.98
2018-09-25T21:57:36.030Z,89.61
2018-09-25T21:59:28.620Z,88.93
